sensor_id;sensor_type;location;lat;lon;timestamp;temperature;humidity
8939;DHT22;4504;48.810;9.172;2023-08-17T00:01:32;21.40;99.90
8939;DHT22;4504;48.810;9.172;2023-08-17T00:03:59;21.40;99.90
8939;DHT22;4504;48.810;9.172;2023-08-17T00:06:27;21.30;99.90
8939;DHT22;4504;48.810;9.172;2023-08-17T00:08:55;21.30;99.90
8939;DHT22;4504;48.810;9.172;2023-08-17T00:11:22;21.30;99.90
8939;DHT22;4504;48.810;9.172;2023-08-17T00:13:49;21.30;99.90
8939;DHT22;4504;48.810;9.172;2023-08-17T00:16:16;21.30;99.90
8939;DHT22;4504;48.810;9.172;2023-08-17T00:18:43;21.30;99.90
8939;DHT22;4504;48.810;9.172;2023-08-17T00:21:10;21.30;99.90
8939;DHT22;4504;48.810;9.172;2023-08-17T00:23:38;21.30;99.90
8939;DHT22;4504;48.810;9.172;2023-08-17T00:26:05;21.30;99.90
8939;DHT22;4504;48.810;9.172;2023-08-17T00:28:33;21.30;99.90
8939;DHT22;4504;48.810;9.172;2023-08-17T00:31:00;21.20;99.90
8939;DHT22;4504;48.810;9.172;2023-08-17T00:33:27;21.20;99.90
8939;DHT22;4504;48.810;9.172;2023-08-17T00:35:54;21.20;99.90
8939;DHT22;4504;48.810;9.172;2023-08-17T00:38:21;21.20;99.90
8939;DHT22;4504;48.810;9.172;2023-08-17T00:40:49;21.20;99.90
8939;DHT22;4504;48.810;9.172;2023-08-17T00:43:16;21.20;99.90
8939;DHT22;4504;48.810;9.172;2023-08-17T00:45:44;21.10;99.90
8939;DHT22;4504;48.810;9.172;2023-08-17T00:48:13;21.10;99.90
8939;DHT22;4504;48.810;9.172;2023-08-17T00:50:41;21.10;99.90
8939;DHT22;4504;48.810;9.172;2023-08-17T00:53:08;21.10;99.90
8939;DHT22;4504;48.810;9.172;2023-08-17T00:55:39;21.00;99.90
8939;DHT22;4504;48.810;9.172;2023-08-17T00:58:07;20.90;99.90
8939;DHT22;4504;48.810;9.172;2023-08-17T01:00:35;20.90;99.90
8939;DHT22;4504;48.810;9.172;2023-08-17T01:03:03;20.90;99.90
8939;DHT22;4504;48.810;9.172;2023-08-17T01:05:31;21.00;99.90
8939;DHT22;4504;48.810;9.172;2023-08-17T01:07:58;21.00;99.90
8939;DHT22;4504;48.810;9.172;2023-08-17T01:10:29;21.00;99.90
8939;DHT22;4504;48.810;9.172;2023-08-17T01:13:04;21.10;99.90
8939;DHT22;4504;48.810;9.172;2023-08-17T01:15:36;21.10;99.90
8939;DHT22;4504;48.810;9.172;2023-08-17T01:18:10;21.10;99.90
8939;DHT22;4504;48.810;9.172;2023-08-17T01:20:37;21.10;99.90
8939;DHT22;4504;48.810;9.172;2023-08-17T01:23:07;21.10;99.90
8939;DHT22;4504;48.810;9.172;2023-08-17T01:25:34;21.10;99.90
8939;DHT22;4504;48.810;9.172;2023-08-17T01:28:02;21.20;99.90
8939;DHT22;4504;48.810;9.172;2023-08-17T01:30:34;21.10;99.90
8939;DHT22;4504;48.810;9.172;2023-08-17T01:33:08;21.10;99.90
8939;DHT22;4504;48.810;9.172;2023-08-17T01:35:39;21.00;99.90
8939;DHT22;4504;48.810;9.172;2023-08-17T01:38:16;21.00;99.90
8939;DHT22;4504;48.810;9.172;2023-08-17T01:40:45;21.00;99.90
8939;DHT22;4504;48.810;9.172;2023-08-17T01:43:12;21.10;99.90
8939;DHT22;4504;48.810;9.172;2023-08-17T01:45:40;21.10;99.90
8939;DHT22;4504;48.810;9.172;2023-08-17T01:48:07;21.10;99.90
8939;DHT22;4504;48.810;9.172;2023-08-17T01:50:34;21.00;99.90
8939;DHT22;4504;48.810;9.172;2023-08-17T01:53:01;21.10;99.90
8939;DHT22;4504;48.810;9.172;2023-08-17T01:55:29;21.10;99.90
8939;DHT22;4504;48.810;9.172;2023-08-17T01:57:56;21.00;99.90
8939;DHT22;4504;48.810;9.172;2023-08-17T02:00:23;20.90;99.90
8939;DHT22;4504;48.810;9.172;2023-08-17T02:02:50;20.90;99.90
8939;DHT22;4504;48.810;9.172;2023-08-17T02:05:17;20.90;99.90
8939;DHT22;4504;48.810;9.172;2023-08-17T02:07:45;20.90;99.90
8939;DHT22;4504;48.810;9.172;2023-08-17T02:10:12;20.90;99.90
8939;DHT22;4504;48.810;9.172;2023-08-17T02:12:40;20.90;99.90
8939;DHT22;4504;48.810;9.172;2023-08-17T02:15:08;20.90;99.90
8939;DHT22;4504;48.810;9.172;2023-08-17T02:17:35;20.80;99.90
8939;DHT22;4504;48.810;9.172;2023-08-17T02:20:03;20.80;99.90
8939;DHT22;4504;48.810;9.172;2023-08-17T02:22:30;20.80;99.90
8939;DHT22;4504;48.810;9.172;2023-08-17T02:24:57;20.80;99.90
8939;DHT22;4504;48.810;9.172;2023-08-17T02:27:24;20.80;99.90
8939;DHT22;4504;48.810;9.172;2023-08-17T02:29:53;20.80;99.90
8939;DHT22;4504;48.810;9.172;2023-08-17T02:32:20;20.80;99.90
8939;DHT22;4504;48.810;9.172;2023-08-17T02:34:47;20.80;99.90
8939;DHT22;4504;48.810;9.172;2023-08-17T02:37:14;20.80;99.90
8939;DHT22;4504;48.810;9.172;2023-08-17T02:42:46;20.80;99.90
8939;DHT22;4504;48.810;9.172;2023-08-17T02:45:16;20.80;99.90
8939;DHT22;4504;48.810;9.172;2023-08-17T02:47:43;20.70;99.90
8939;DHT22;4504;48.810;9.172;2023-08-17T02:50:10;20.70;99.90
8939;DHT22;4504;48.810;9.172;2023-08-17T02:52:37;20.70;99.90
8939;DHT22;4504;48.810;9.172;2023-08-17T02:55:05;20.70;99.90
8939;DHT22;4504;48.810;9.172;2023-08-17T02:57:32;20.70;99.90
8939;DHT22;4504;48.810;9.172;2023-08-17T02:59:59;20.70;99.90
8939;DHT22;4504;48.810;9.172;2023-08-17T03:02:27;20.70;99.90
8939;DHT22;4504;48.810;9.172;2023-08-17T03:04:54;20.60;99.90
8939;DHT22;4504;48.810;9.172;2023-08-17T03:07:21;20.60;99.90
8939;DHT22;4504;48.810;9.172;2023-08-17T03:09:48;20.60;99.90
8939;DHT22;4504;48.810;9.172;2023-08-17T03:12:15;20.50;99.90
8939;DHT22;4504;48.810;9.172;2023-08-17T03:14:42;20.50;99.90
8939;DHT22;4504;48.810;9.172;2023-08-17T03:17:09;20.60;99.90
8939;DHT22;4504;48.810;9.172;2023-08-17T03:19:37;20.60;99.90
8939;DHT22;4504;48.810;9.172;2023-08-17T03:22:04;20.60;99.90
8939;DHT22;4504;48.810;9.172;2023-08-17T03:24:31;20.70;99.90
8939;DHT22;4504;48.810;9.172;2023-08-17T03:26:59;20.60;99.90
8939;DHT22;4504;48.810;9.172;2023-08-17T03:29:26;20.70;99.90
8939;DHT22;4504;48.810;9.172;2023-08-17T03:31:54;20.70;99.90
8939;DHT22;4504;48.810;9.172;2023-08-17T03:34:21;20.70;99.90
8939;DHT22;4504;48.810;9.172;2023-08-17T03:36:50;20.70;99.90
8939;DHT22;4504;48.810;9.172;2023-08-17T03:39:17;20.70;99.90
8939;DHT22;4504;48.810;9.172;2023-08-17T03:41:44;20.70;99.90
8939;DHT22;4504;48.810;9.172;2023-08-17T03:44:11;20.70;99.90
8939;DHT22;4504;48.810;9.172;2023-08-17T03:46:39;20.70;99.90
8939;DHT22;4504;48.810;9.172;2023-08-17T03:49:06;20.70;99.90
8939;DHT22;4504;48.810;9.172;2023-08-17T03:51:33;20.80;99.90
8939;DHT22;4504;48.810;9.172;2023-08-17T03:54:01;20.80;99.90
8939;DHT22;4504;48.810;9.172;2023-08-17T03:56:28;20.70;99.90
8939;DHT22;4504;48.810;9.172;2023-08-17T03:58:56;20.70;99.90
8939;DHT22;4504;48.810;9.172;2023-08-17T04:01:22;20.80;99.90
8939;DHT22;4504;48.810;9.172;2023-08-17T04:03:49;20.80;99.90
8939;DHT22;4504;48.810;9.172;2023-08-17T04:06:16;20.80;99.90
8939;DHT22;4504;48.810;9.172;2023-08-17T04:08:43;20.80;99.90
8939;DHT22;4504;48.810;9.172;2023-08-17T04:11:13;20.70;99.90
8939;DHT22;4504;48.810;9.172;2023-08-17T04:13:40;20.70;99.90
8939;DHT22;4504;48.810;9.172;2023-08-17T04:16:07;20.60;99.90
8939;DHT22;4504;48.810;9.172;2023-08-17T04:18:33;20.60;99.90
8939;DHT22;4504;48.810;9.172;2023-08-17T04:21:02;20.60;99.90
8939;DHT22;4504;48.810;9.172;2023-08-17T04:23:29;20.60;99.90
8939;DHT22;4504;48.810;9.172;2023-08-17T04:25:56;20.60;99.90
8939;DHT22;4504;48.810;9.172;2023-08-17T04:28:24;20.60;99.90
8939;DHT22;4504;48.810;9.172;2023-08-17T04:30:52;20.50;99.90
8939;DHT22;4504;48.810;9.172;2023-08-17T04:33:19;20.50;99.90
8939;DHT22;4504;48.810;9.172;2023-08-17T04:35:47;20.60;99.90
8939;DHT22;4504;48.810;9.172;2023-08-17T04:38:15;20.60;99.90
8939;DHT22;4504;48.810;9.172;2023-08-17T04:40:43;20.60;99.90
8939;DHT22;4504;48.810;9.172;2023-08-17T04:43:10;20.60;99.90
8939;DHT22;4504;48.810;9.172;2023-08-17T04:45:38;20.50;99.90
8939;DHT22;4504;48.810;9.172;2023-08-17T04:48:06;20.60;99.90
8939;DHT22;4504;48.810;9.172;2023-08-17T04:50:33;20.60;99.90
8939;DHT22;4504;48.810;9.172;2023-08-17T04:53:00;20.50;99.90
8939;DHT22;4504;48.810;9.172;2023-08-17T04:55:28;20.60;99.90
8939;DHT22;4504;48.810;9.172;2023-08-17T04:57:57;20.60;99.90
8939;DHT22;4504;48.810;9.172;2023-08-17T05:00:24;20.60;99.90
8939;DHT22;4504;48.810;9.172;2023-08-17T05:02:55;20.70;99.90
8939;DHT22;4504;48.810;9.172;2023-08-17T05:05:25;20.70;99.90
8939;DHT22;4504;48.810;9.172;2023-08-17T05:07:53;20.80;99.90
8939;DHT22;4504;48.810;9.172;2023-08-17T05:10:20;20.80;99.90
8939;DHT22;4504;48.810;9.172;2023-08-17T05:12:48;20.80;99.90
8939;DHT22;4504;48.810;9.172;2023-08-17T05:15:15;20.80;99.90
8939;DHT22;4504;48.810;9.172;2023-08-17T05:17:42;20.80;99.90
8939;DHT22;4504;48.810;9.172;2023-08-17T05:20:12;20.90;99.90
8939;DHT22;4504;48.810;9.172;2023-08-17T05:22:40;20.90;99.90
8939;DHT22;4504;48.810;9.172;2023-08-17T05:25:07;20.90;99.90
8939;DHT22;4504;48.810;9.172;2023-08-17T05:27:37;20.90;99.90
8939;DHT22;4504;48.810;9.172;2023-08-17T05:30:05;20.90;99.90
8939;DHT22;4504;48.810;9.172;2023-08-17T05:32:32;20.90;99.90
8939;DHT22;4504;48.810;9.172;2023-08-17T05:34:59;20.90;99.90
8939;DHT22;4504;48.810;9.172;2023-08-17T05:37:28;20.80;99.90
8939;DHT22;4504;48.810;9.172;2023-08-17T05:39:55;20.90;99.90
8939;DHT22;4504;48.810;9.172;2023-08-17T05:42:22;20.80;99.90
8939;DHT22;4504;48.810;9.172;2023-08-17T05:44:50;20.80;99.90
8939;DHT22;4504;48.810;9.172;2023-08-17T05:47:17;20.80;99.90
8939;DHT22;4504;48.810;9.172;2023-08-17T05:49:45;20.90;99.90
8939;DHT22;4504;48.810;9.172;2023-08-17T05:52:12;20.90;99.90
8939;DHT22;4504;48.810;9.172;2023-08-17T05:54:40;20.90;99.90
8939;DHT22;4504;48.810;9.172;2023-08-17T05:57:08;20.90;99.90
8939;DHT22;4504;48.810;9.172;2023-08-17T05:59:36;21.00;99.90
8939;DHT22;4504;48.810;9.172;2023-08-17T06:02:03;21.10;99.90
8939;DHT22;4504;48.810;9.172;2023-08-17T06:04:30;21.10;99.90
8939;DHT22;4504;48.810;9.172;2023-08-17T06:06:57;21.10;99.90
8939;DHT22;4504;48.810;9.172;2023-08-17T06:09:24;21.10;99.90
8939;DHT22;4504;48.810;9.172;2023-08-17T06:11:53;21.10;99.90
8939;DHT22;4504;48.810;9.172;2023-08-17T06:14:20;21.10;99.90
8939;DHT22;4504;48.810;9.172;2023-08-17T06:16:47;21.10;99.90
8939;DHT22;4504;48.810;9.172;2023-08-17T06:19:14;21.10;99.90
8939;DHT22;4504;48.810;9.172;2023-08-17T06:21:40;21.00;99.90
8939;DHT22;4504;48.810;9.172;2023-08-17T06:24:07;21.10;99.90
8939;DHT22;4504;48.810;9.172;2023-08-17T06:26:34;21.20;99.90
8939;DHT22;4504;48.810;9.172;2023-08-17T06:29:06;21.30;99.90
8939;DHT22;4504;48.810;9.172;2023-08-17T06:31:33;21.30;99.90
8939;DHT22;4504;48.810;9.172;2023-08-17T06:34:00;21.20;99.90
8939;DHT22;4504;48.810;9.172;2023-08-17T06:36:31;21.20;99.90
8939;DHT22;4504;48.810;9.172;2023-08-17T06:38:58;21.20;99.90
8939;DHT22;4504;48.810;9.172;2023-08-17T06:41:25;21.30;99.90
8939;DHT22;4504;48.810;9.172;2023-08-17T06:43:52;21.40;99.90
8939;DHT22;4504;48.810;9.172;2023-08-17T06:46:20;21.50;99.90
8939;DHT22;4504;48.810;9.172;2023-08-17T06:48:47;21.60;99.90
8939;DHT22;4504;48.810;9.172;2023-08-17T06:51:14;21.70;99.90
8939;DHT22;4504;48.810;9.172;2023-08-17T06:53:41;21.80;99.90
8939;DHT22;4504;48.810;9.172;2023-08-17T06:56:09;21.80;99.90
8939;DHT22;4504;48.810;9.172;2023-08-17T06:58:36;21.90;99.90
8939;DHT22;4504;48.810;9.172;2023-08-17T07:01:03;21.90;99.90
8939;DHT22;4504;48.810;9.172;2023-08-17T07:03:31;21.90;99.90
8939;DHT22;4504;48.810;9.172;2023-08-17T07:05:59;21.90;99.90
8939;DHT22;4504;48.810;9.172;2023-08-17T07:08:26;21.90;99.90
8939;DHT22;4504;48.810;9.172;2023-08-17T07:10:52;22.00;99.90
8939;DHT22;4504;48.810;9.172;2023-08-17T07:13:19;22.10;99.90
8939;DHT22;4504;48.810;9.172;2023-08-17T07:15:46;22.20;99.90
8939;DHT22;4504;48.810;9.172;2023-08-17T07:18:13;22.30;99.90
8939;DHT22;4504;48.810;9.172;2023-08-17T07:20:42;22.20;99.90
8939;DHT22;4504;48.810;9.172;2023-08-17T07:23:09;22.20;99.90
8939;DHT22;4504;48.810;9.172;2023-08-17T07:25:35;22.20;99.90
8939;DHT22;4504;48.810;9.172;2023-08-17T07:28:03;22.30;99.90
8939;DHT22;4504;48.810;9.172;2023-08-17T07:30:30;22.40;99.90
8939;DHT22;4504;48.810;9.172;2023-08-17T07:32:57;22.50;99.90
8939;DHT22;4504;48.810;9.172;2023-08-17T07:35:24;22.60;99.90
8939;DHT22;4504;48.810;9.172;2023-08-17T07:37:53;22.70;99.90
8939;DHT22;4504;48.810;9.172;2023-08-17T07:40:20;22.60;99.90
8939;DHT22;4504;48.810;9.172;2023-08-17T07:42:47;22.60;99.90
8939;DHT22;4504;48.810;9.172;2023-08-17T07:45:14;22.60;99.90
8939;DHT22;4504;48.810;9.172;2023-08-17T07:47:41;22.60;99.90
8939;DHT22;4504;48.810;9.172;2023-08-17T07:50:08;22.60;99.90
8939;DHT22;4504;48.810;9.172;2023-08-17T07:52:35;22.60;99.90
8939;DHT22;4504;48.810;9.172;2023-08-17T07:55:04;22.70;99.90
8939;DHT22;4504;48.810;9.172;2023-08-17T07:57:31;22.60;99.90
8939;DHT22;4504;48.810;9.172;2023-08-17T07:59:58;22.50;99.90
8939;DHT22;4504;48.810;9.172;2023-08-17T08:02:25;22.40;99.90
8939;DHT22;4504;48.810;9.172;2023-08-17T08:04:52;22.40;99.90
8939;DHT22;4504;48.810;9.172;2023-08-17T08:07:20;22.40;99.90
8939;DHT22;4504;48.810;9.172;2023-08-17T08:09:47;22.40;99.90
8939;DHT22;4504;48.810;9.172;2023-08-17T08:12:16;22.20;99.90
8939;DHT22;4504;48.810;9.172;2023-08-17T08:14:43;22.20;99.90
8939;DHT22;4504;48.810;9.172;2023-08-17T08:17:10;22.20;99.90
8939;DHT22;4504;48.810;9.172;2023-08-17T08:19:37;22.20;99.90
8939;DHT22;4504;48.810;9.172;2023-08-17T08:22:04;22.30;99.90
8939;DHT22;4504;48.810;9.172;2023-08-17T08:24:31;22.40;99.90
8939;DHT22;4504;48.810;9.172;2023-08-17T08:27:00;22.40;99.90
8939;DHT22;4504;48.810;9.172;2023-08-17T08:29:29;22.40;99.90
8939;DHT22;4504;48.810;9.172;2023-08-17T08:31:56;22.40;99.90
8939;DHT22;4504;48.810;9.172;2023-08-17T08:34:25;22.40;99.90
8939;DHT22;4504;48.810;9.172;2023-08-17T08:36:52;22.50;99.90
8939;DHT22;4504;48.810;9.172;2023-08-17T08:39:49;22.60;99.90
8939;DHT22;4504;48.810;9.172;2023-08-17T08:42:17;22.70;99.90
8939;DHT22;4504;48.810;9.172;2023-08-17T08:44:46;22.70;99.90
8939;DHT22;4504;48.810;9.172;2023-08-17T08:47:13;22.80;99.90
8939;DHT22;4504;48.810;9.172;2023-08-17T08:49:46;22.80;99.90
8939;DHT22;4504;48.810;9.172;2023-08-17T08:52:20;22.80;99.90
8939;DHT22;4504;48.810;9.172;2023-08-17T08:54:50;22.80;99.90
8939;DHT22;4504;48.810;9.172;2023-08-17T08:57:17;22.70;99.90
8939;DHT22;4504;48.810;9.172;2023-08-17T08:59:46;22.80;99.90
8939;DHT22;4504;48.810;9.172;2023-08-17T09:02:15;22.90;99.90
8939;DHT22;4504;48.810;9.172;2023-08-17T09:04:43;22.90;99.90
8939;DHT22;4504;48.810;9.172;2023-08-17T09:07:11;22.80;99.90
8939;DHT22;4504;48.810;9.172;2023-08-17T09:09:39;22.80;99.90
8939;DHT22;4504;48.810;9.172;2023-08-17T09:12:07;22.90;99.90
8939;DHT22;4504;48.810;9.172;2023-08-17T09:14:35;23.10;99.90
8939;DHT22;4504;48.810;9.172;2023-08-17T09:17:04;23.20;99.90
8939;DHT22;4504;48.810;9.172;2023-08-17T09:19:31;23.30;99.90
8939;DHT22;4504;48.810;9.172;2023-08-17T09:21:59;23.30;99.90
8939;DHT22;4504;48.810;9.172;2023-08-17T09:24:33;23.50;99.90
8939;DHT22;4504;48.810;9.172;2023-08-17T09:27:01;23.50;99.90
8939;DHT22;4504;48.810;9.172;2023-08-17T09:29:28;23.60;99.90
8939;DHT22;4504;48.810;9.172;2023-08-17T09:32:04;23.70;99.90
8939;DHT22;4504;48.810;9.172;2023-08-17T09:34:32;23.90;99.90
8939;DHT22;4504;48.810;9.172;2023-08-17T09:37:02;24.10;99.90
8939;DHT22;4504;48.810;9.172;2023-08-17T09:39:29;24.30;99.90
8939;DHT22;4504;48.810;9.172;2023-08-17T09:41:57;24.30;99.90
8939;DHT22;4504;48.810;9.172;2023-08-17T09:44:24;24.30;99.90
8939;DHT22;4504;48.810;9.172;2023-08-17T09:46:51;24.40;99.90
8939;DHT22;4504;48.810;9.172;2023-08-17T09:49:20;24.40;99.90
8939;DHT22;4504;48.810;9.172;2023-08-17T09:51:49;24.50;99.90
8939;DHT22;4504;48.810;9.172;2023-08-17T09:54:21;24.50;99.90
8939;DHT22;4504;48.810;9.172;2023-08-17T09:56:50;24.60;99.90
8939;DHT22;4504;48.810;9.172;2023-08-17T09:59:18;24.60;99.90
8939;DHT22;4504;48.810;9.172;2023-08-17T10:01:47;24.60;99.90
8939;DHT22;4504;48.810;9.172;2023-08-17T10:04:17;24.80;99.90
8939;DHT22;4504;48.810;9.172;2023-08-17T10:06:48;25.00;99.90
8939;DHT22;4504;48.810;9.172;2023-08-17T10:09:22;24.90;99.90
8939;DHT22;4504;48.810;9.172;2023-08-17T10:11:52;25.00;99.90
8939;DHT22;4504;48.810;9.172;2023-08-17T10:14:25;25.10;99.90
8939;DHT22;4504;48.810;9.172;2023-08-17T10:16:57;25.20;99.90
8939;DHT22;4504;48.810;9.172;2023-08-17T10:19:36;25.30;99.90
8939;DHT22;4504;48.810;9.172;2023-08-17T10:22:11;25.40;99.90
8939;DHT22;4504;48.810;9.172;2023-08-17T10:24:39;25.40;99.90
8939;DHT22;4504;48.810;9.172;2023-08-17T10:27:07;25.70;99.90
8939;DHT22;4504;48.810;9.172;2023-08-17T10:29:38;25.80;99.90
8939;DHT22;4504;48.810;9.172;2023-08-17T10:32:06;26.00;99.90
8939;DHT22;4504;48.810;9.172;2023-08-17T10:34:33;26.10;99.90
8939;DHT22;4504;48.810;9.172;2023-08-17T10:37:01;25.90;99.90
8939;DHT22;4504;48.810;9.172;2023-08-17T10:39:30;25.40;99.90
8939;DHT22;4504;48.810;9.172;2023-08-17T10:41:59;25.20;99.90
8939;DHT22;4504;48.810;9.172;2023-08-17T10:44:40;25.20;99.90
8939;DHT22;4504;48.810;9.172;2023-08-17T10:47:24;25.50;99.90
8939;DHT22;4504;48.810;9.172;2023-08-17T10:49:52;25.80;99.90
8939;DHT22;4504;48.810;9.172;2023-08-17T10:52:29;26.00;99.90
8939;DHT22;4504;48.810;9.172;2023-08-17T10:55:05;26.30;99.90
8939;DHT22;4504;48.810;9.172;2023-08-17T10:57:34;26.50;99.90
8939;DHT22;4504;48.810;9.172;2023-08-17T11:00:20;26.50;99.90
8939;DHT22;4504;48.810;9.172;2023-08-17T11:02:56;26.60;99.90
8939;DHT22;4504;48.810;9.172;2023-08-17T11:05:39;26.70;99.90
8939;DHT22;4504;48.810;9.172;2023-08-17T11:08:08;26.90;99.90
8939;DHT22;4504;48.810;9.172;2023-08-17T11:10:37;27.10;99.90
8939;DHT22;4504;48.810;9.172;2023-08-17T11:13:05;27.10;99.90
8939;DHT22;4504;48.810;9.172;2023-08-17T11:15:39;27.20;99.90
8939;DHT22;4504;48.810;9.172;2023-08-17T11:18:08;27.30;99.90
8939;DHT22;4504;48.810;9.172;2023-08-17T11:20:36;27.10;99.90
8939;DHT22;4504;48.810;9.172;2023-08-17T11:23:05;27.10;99.90
8939;DHT22;4504;48.810;9.172;2023-08-17T11:25:33;27.30;99.90
8939;DHT22;4504;48.810;9.172;2023-08-17T11:28:05;27.50;99.90
8939;DHT22;4504;48.810;9.172;2023-08-17T11:30:33;27.20;99.90
8939;DHT22;4504;48.810;9.172;2023-08-17T11:33:03;27.00;99.90
8939;DHT22;4504;48.810;9.172;2023-08-17T11:35:31;27.10;99.90
8939;DHT22;4504;48.810;9.172;2023-08-17T11:37:59;27.30;99.90
8939;DHT22;4504;48.810;9.172;2023-08-17T11:40:27;27.50;99.90
8939;DHT22;4504;48.810;9.172;2023-08-17T11:42:55;27.50;99.90
8939;DHT22;4504;48.810;9.172;2023-08-17T11:45:25;27.50;99.90
8939;DHT22;4504;48.810;9.172;2023-08-17T11:47:53;27.50;99.90
8939;DHT22;4504;48.810;9.172;2023-08-17T11:50:20;27.90;99.90
8939;DHT22;4504;48.810;9.172;2023-08-17T11:52:47;27.80;99.90
8939;DHT22;4504;48.810;9.172;2023-08-17T11:55:16;27.80;99.90
8939;DHT22;4504;48.810;9.172;2023-08-17T11:57:44;27.90;99.90
8939;DHT22;4504;48.810;9.172;2023-08-17T12:00:17;27.90;99.90
8939;DHT22;4504;48.810;9.172;2023-08-17T12:02:48;27.60;99.90
8939;DHT22;4504;48.810;9.172;2023-08-17T12:05:19;27.40;99.90
8939;DHT22;4504;48.810;9.172;2023-08-17T12:07:46;27.50;99.90
8939;DHT22;4504;48.810;9.172;2023-08-17T12:10:13;27.50;99.90
8939;DHT22;4504;48.810;9.172;2023-08-17T12:12:40;27.30;99.90
8939;DHT22;4504;48.810;9.172;2023-08-17T12:15:10;27.30;99.90
8939;DHT22;4504;48.810;9.172;2023-08-17T12:17:44;27.40;99.90
8939;DHT22;4504;48.810;9.172;2023-08-17T12:20:17;27.90;99.90
8939;DHT22;4504;48.810;9.172;2023-08-17T12:22:44;27.80;99.90
8939;DHT22;4504;48.810;9.172;2023-08-17T12:25:11;27.70;99.90
8939;DHT22;4504;48.810;9.172;2023-08-17T12:27:38;27.60;99.90
8939;DHT22;4504;48.810;9.172;2023-08-17T12:30:11;27.70;99.90
8939;DHT22;4504;48.810;9.172;2023-08-17T12:32:39;27.80;99.90
8939;DHT22;4504;48.810;9.172;2023-08-17T12:35:06;27.40;99.90
8939;DHT22;4504;48.810;9.172;2023-08-17T12:37:35;27.10;99.90
8939;DHT22;4504;48.810;9.172;2023-08-17T12:40:02;27.00;99.90
8939;DHT22;4504;48.810;9.172;2023-08-17T12:42:30;26.80;99.90
8939;DHT22;4504;48.810;9.172;2023-08-17T12:44:58;26.70;99.90
8939;DHT22;4504;48.810;9.172;2023-08-17T12:47:25;26.60;99.90
8939;DHT22;4504;48.810;9.172;2023-08-17T12:49:52;26.60;99.90
8939;DHT22;4504;48.810;9.172;2023-08-17T12:52:19;26.50;99.90
8939;DHT22;4504;48.810;9.172;2023-08-17T12:54:48;26.40;99.90
8939;DHT22;4504;48.810;9.172;2023-08-17T12:57:15;26.40;99.90
8939;DHT22;4504;48.810;9.172;2023-08-17T12:59:42;26.30;99.90
8939;DHT22;4504;48.810;9.172;2023-08-17T13:02:09;26.20;99.90
8939;DHT22;4504;48.810;9.172;2023-08-17T13:04:36;26.20;99.90
8939;DHT22;4504;48.810;9.172;2023-08-17T13:07:03;26.10;99.90
8939;DHT22;4504;48.810;9.172;2023-08-17T13:09:30;26.00;99.90
8939;DHT22;4504;48.810;9.172;2023-08-17T13:11:59;25.90;99.90
8939;DHT22;4504;48.810;9.172;2023-08-17T13:14:26;25.80;99.90
8939;DHT22;4504;48.810;9.172;2023-08-17T13:16:52;25.70;99.90
8939;DHT22;4504;48.810;9.172;2023-08-17T13:19:19;25.60;99.90
8939;DHT22;4504;48.810;9.172;2023-08-17T13:21:46;25.40;99.90
8939;DHT22;4504;48.810;9.172;2023-08-17T13:24:13;25.20;99.90
8939;DHT22;4504;48.810;9.172;2023-08-17T13:26:40;25.10;99.90
8939;DHT22;4504;48.810;9.172;2023-08-17T13:29:09;24.90;99.90
8939;DHT22;4504;48.810;9.172;2023-08-17T13:31:36;24.80;99.90
8939;DHT22;4504;48.810;9.172;2023-08-17T13:34:03;24.70;99.90
8939;DHT22;4504;48.810;9.172;2023-08-17T13:36:30;24.60;99.90
8939;DHT22;4504;48.810;9.172;2023-08-17T13:38:57;24.50;99.90
8939;DHT22;4504;48.810;9.172;2023-08-17T13:41:24;24.40;99.90
8939;DHT22;4504;48.810;9.172;2023-08-17T13:43:51;24.30;99.90
8939;DHT22;4504;48.810;9.172;2023-08-17T13:46:19;24.40;99.90
8939;DHT22;4504;48.810;9.172;2023-08-17T13:48:46;24.30;99.90
8939;DHT22;4504;48.810;9.172;2023-08-17T13:51:13;24.20;99.90
8939;DHT22;4504;48.810;9.172;2023-08-17T13:54:02;24.20;99.90
8939;DHT22;4504;48.810;9.172;2023-08-17T13:56:31;23.90;99.90
8939;DHT22;4504;48.810;9.172;2023-08-17T13:58:58;23.90;99.90
8939;DHT22;4504;48.810;9.172;2023-08-17T14:01:26;23.80;99.90
8939;DHT22;4504;48.810;9.172;2023-08-17T14:03:53;23.80;99.90
8939;DHT22;4504;48.810;9.172;2023-08-17T14:06:20;23.60;99.90
8939;DHT22;4504;48.810;9.172;2023-08-17T14:08:47;23.60;99.90
8939;DHT22;4504;48.810;9.172;2023-08-17T14:11:14;23.60;99.90
8939;DHT22;4504;48.810;9.172;2023-08-17T14:13:41;23.60;99.90
8939;DHT22;4504;48.810;9.172;2023-08-17T14:16:08;23.70;99.90
8939;DHT22;4504;48.810;9.172;2023-08-17T14:18:36;23.70;99.90
8939;DHT22;4504;48.810;9.172;2023-08-17T14:21:03;23.70;99.90
8939;DHT22;4504;48.810;9.172;2023-08-17T14:23:30;23.80;99.90
8939;DHT22;4504;48.810;9.172;2023-08-17T14:25:57;23.80;99.90
8939;DHT22;4504;48.810;9.172;2023-08-17T14:28:24;23.80;99.90
8939;DHT22;4504;48.810;9.172;2023-08-17T14:30:52;23.80;99.90
8939;DHT22;4504;48.810;9.172;2023-08-17T14:33:19;23.80;99.90
8939;DHT22;4504;48.810;9.172;2023-08-17T14:35:47;23.80;99.90
8939;DHT22;4504;48.810;9.172;2023-08-17T14:38:15;23.80;99.90
8939;DHT22;4504;48.810;9.172;2023-08-17T14:40:43;23.80;99.90
8939;DHT22;4504;48.810;9.172;2023-08-17T14:43:10;23.80;99.90
8939;DHT22;4504;48.810;9.172;2023-08-17T14:45:39;24.00;99.90
8939;DHT22;4504;48.810;9.172;2023-08-17T14:48:06;24.20;99.90
8939;DHT22;4504;48.810;9.172;2023-08-17T14:50:34;24.30;99.90
8939;DHT22;4504;48.810;9.172;2023-08-17T14:53:03;24.40;99.90
8939;DHT22;4504;48.810;9.172;2023-08-17T14:55:32;24.30;99.90
8939;DHT22;4504;48.810;9.172;2023-08-17T14:57:59;24.40;99.90
8939;DHT22;4504;48.810;9.172;2023-08-17T15:00:26;24.60;99.90
8939;DHT22;4504;48.810;9.172;2023-08-17T15:02:56;24.70;99.90
8939;DHT22;4504;48.810;9.172;2023-08-17T15:05:23;24.80;99.90
8939;DHT22;4504;48.810;9.172;2023-08-17T15:07:50;24.90;99.90
8939;DHT22;4504;48.810;9.172;2023-08-17T15:10:18;25.10;99.90
8939;DHT22;4504;48.810;9.172;2023-08-17T15:12:45;24.90;99.90
8939;DHT22;4504;48.810;9.172;2023-08-17T15:15:12;24.90;99.90
8939;DHT22;4504;48.810;9.172;2023-08-17T15:17:39;24.80;99.90
8939;DHT22;4504;48.810;9.172;2023-08-17T15:20:07;24.80;99.90
8939;DHT22;4504;48.810;9.172;2023-08-17T15:22:34;25.10;99.90
8939;DHT22;4504;48.810;9.172;2023-08-17T15:25:02;25.20;99.90
8939;DHT22;4504;48.810;9.172;2023-08-17T15:27:30;25.00;99.90
8939;DHT22;4504;48.810;9.172;2023-08-17T15:29:57;25.00;99.90
8939;DHT22;4504;48.810;9.172;2023-08-17T15:32:24;25.00;99.90
8939;DHT22;4504;48.810;9.172;2023-08-17T15:34:51;25.10;99.90
8939;DHT22;4504;48.810;9.172;2023-08-17T15:37:18;25.20;99.90
8939;DHT22;4504;48.810;9.172;2023-08-17T15:39:46;25.30;99.90
8939;DHT22;4504;48.810;9.172;2023-08-17T15:42:13;25.30;99.90
8939;DHT22;4504;48.810;9.172;2023-08-17T15:44:43;25.20;99.90
8939;DHT22;4504;48.810;9.172;2023-08-17T15:47:10;25.30;99.90
8939;DHT22;4504;48.810;9.172;2023-08-17T15:49:37;25.20;99.90
8939;DHT22;4504;48.810;9.172;2023-08-17T15:52:04;25.20;99.90
8939;DHT22;4504;48.810;9.172;2023-08-17T15:54:31;25.20;99.90
8939;DHT22;4504;48.810;9.172;2023-08-17T15:56:58;25.30;99.90
8939;DHT22;4504;48.810;9.172;2023-08-17T15:59:25;25.40;99.90
8939;DHT22;4504;48.810;9.172;2023-08-17T16:01:54;25.40;99.90
8939;DHT22;4504;48.810;9.172;2023-08-17T16:04:21;25.40;99.90
8939;DHT22;4504;48.810;9.172;2023-08-17T16:06:48;25.60;99.90
8939;DHT22;4504;48.810;9.172;2023-08-17T16:09:15;25.70;99.90
8939;DHT22;4504;48.810;9.172;2023-08-17T16:11:42;25.80;99.90